sensor_id;sensor_type;location;lat;lon;timestamp;temperature;humidity
60473;DHT22;46318;52.716;6.444;2022-11-06T00:01:29;10.00;99.90
60473;DHT22;46318;52.716;6.444;2022-11-06T00:03:56;10.00;99.90
60473;DHT22;46318;52.716;6.444;2022-11-06T00:06:22;10.00;99.90
60473;DHT22;46318;52.716;6.444;2022-11-06T00:09:09;10.00;99.90
60473;DHT22;46318;52.716;6.444;2022-11-06T00:11:37;10.00;99.90
60473;DHT22;46318;52.716;6.444;2022-11-06T00:14:04;10.00;99.90
60473;DHT22;46318;52.716;6.444;2022-11-06T00:16:30;10.00;99.90
60473;DHT22;46318;52.716;6.444;2022-11-06T00:18:58;10.00;99.90
60473;DHT22;46318;52.716;6.444;2022-11-06T00:21:26;10.00;99.90
60473;DHT22;46318;52.716;6.444;2022-11-06T00:23:54;10.00;99.90
60473;DHT22;46318;52.716;6.444;2022-11-06T00:26:24;9.90;99.90
60473;DHT22;46318;52.716;6.444;2022-11-06T00:28:51;9.90;99.90
60473;DHT22;46318;52.716;6.444;2022-11-06T00:31:23;9.90;99.90
60473;DHT22;46318;52.716;6.444;2022-11-06T00:33:52;9.90;99.90
60473;DHT22;46318;52.716;6.444;2022-11-06T00:36:21;9.90;99.90
60473;DHT22;46318;52.716;6.444;2022-11-06T00:38:50;9.90;99.90
60473;DHT22;46318;52.716;6.444;2022-11-06T00:41:20;9.90;99.90
60473;DHT22;46318;52.716;6.444;2022-11-06T00:43:48;9.90;99.90
60473;DHT22;46318;52.716;6.444;2022-11-06T00:46:16;9.90;99.90
60473;DHT22;46318;52.716;6.444;2022-11-06T00:48:42;9.90;99.90
60473;DHT22;46318;52.716;6.444;2022-11-06T00:51:20;9.90;99.90
60473;DHT22;46318;52.716;6.444;2022-11-06T00:53:51;9.90;99.90
60473;DHT22;46318;52.716;6.444;2022-11-06T00:56:18;9.90;99.90
60473;DHT22;46318;52.716;6.444;2022-11-06T00:58:46;9.90;99.90
60473;DHT22;46318;52.716;6.444;2022-11-06T01:01:16;9.90;99.90
60473;DHT22;46318;52.716;6.444;2022-11-06T01:03:43;9.90;99.90
60473;DHT22;46318;52.716;6.444;2022-11-06T01:06:15;9.90;99.90
60473;DHT22;46318;52.716;6.444;2022-11-06T01:08:44;9.90;99.90
60473;DHT22;46318;52.716;6.444;2022-11-06T01:11:17;9.90;99.90
60473;DHT22;46318;52.716;6.444;2022-11-06T01:13:45;9.90;99.90
60473;DHT22;46318;52.716;6.444;2022-11-06T01:16:14;9.90;99.90
60473;DHT22;46318;52.716;6.444;2022-11-06T01:18:41;9.90;99.90
60473;DHT22;46318;52.716;6.444;2022-11-06T01:21:11;9.90;99.90
60473;DHT22;46318;52.716;6.444;2022-11-06T01:23:39;9.90;99.90
60473;DHT22;46318;52.716;6.444;2022-11-06T01:26:07;9.90;99.90
60473;DHT22;46318;52.716;6.444;2022-11-06T01:28:33;9.90;99.90
60473;DHT22;46318;52.716;6.444;2022-11-06T01:31:04;9.80;99.90
60473;DHT22;46318;52.716;6.444;2022-11-06T01:33:31;9.80;99.90
60473;DHT22;46318;52.716;6.444;2022-11-06T01:35:57;9.80;99.90
60473;DHT22;46318;52.716;6.444;2022-11-06T01:38:23;9.80;99.90
60473;DHT22;46318;52.716;6.444;2022-11-06T01:40:49;9.80;99.90
60473;DHT22;46318;52.716;6.444;2022-11-06T01:43:18;9.80;99.90
60473;DHT22;46318;52.716;6.444;2022-11-06T01:45:55;9.80;99.90
60473;DHT22;46318;52.716;6.444;2022-11-06T01:48:25;9.80;99.90
60473;DHT22;46318;52.716;6.444;2022-11-06T01:50:55;9.70;99.90
60473;DHT22;46318;52.716;6.444;2022-11-06T01:53:23;9.70;99.90
60473;DHT22;46318;52.716;6.444;2022-11-06T01:55:54;9.70;99.90
60473;DHT22;46318;52.716;6.444;2022-11-06T01:58:23;9.70;99.90
60473;DHT22;46318;52.716;6.444;2022-11-06T02:00:50;9.70;99.90
60473;DHT22;46318;52.716;6.444;2022-11-06T02:03:16;9.70;99.90
60473;DHT22;46318;52.716;6.444;2022-11-06T02:05:43;9.70;99.90
60473;DHT22;46318;52.716;6.444;2022-11-06T02:08:12;9.70;99.90
60473;DHT22;46318;52.716;6.444;2022-11-06T02:10:39;9.70;99.90
60473;DHT22;46318;52.716;6.444;2022-11-06T02:13:33;9.60;99.90
60473;DHT22;46318;52.716;6.444;2022-11-06T02:16:15;9.60;99.90
60473;DHT22;46318;52.716;6.444;2022-11-06T02:22:17;9.60;99.90
60473;DHT22;46318;52.716;6.444;2022-11-06T02:27:36;9.60;99.90
60473;DHT22;46318;52.716;6.444;2022-11-06T02:30:10;9.60;99.90
60473;DHT22;46318;52.716;6.444;2022-11-06T02:35:28;9.60;99.90
60473;DHT22;46318;52.716;6.444;2022-11-06T02:38:21;9.60;99.90
60473;DHT22;46318;52.716;6.444;2022-11-06T02:40:54;9.50;99.90
60473;DHT22;46318;52.716;6.444;2022-11-06T02:43:27;9.50;99.90
60473;DHT22;46318;52.716;6.444;2022-11-06T02:46:07;9.60;99.90
60473;DHT22;46318;52.716;6.444;2022-11-06T02:48:40;9.50;99.90
60473;DHT22;46318;52.716;6.444;2022-11-06T02:51:09;9.50;99.90
60473;DHT22;46318;52.716;6.444;2022-11-06T02:53:41;9.50;99.90
60473;DHT22;46318;52.716;6.444;2022-11-06T02:56:13;9.50;99.90
60473;DHT22;46318;52.716;6.444;2022-11-06T02:58:47;9.50;99.90
60473;DHT22;46318;52.716;6.444;2022-11-06T03:03:57;9.50;99.90
60473;DHT22;46318;52.716;6.444;2022-11-06T03:09:53;9.60;99.90
60473;DHT22;46318;52.716;6.444;2022-11-06T03:15:17;9.50;99.90
60473;DHT22;46318;52.716;6.444;2022-11-06T03:18:10;9.50;99.90
60473;DHT22;46318;52.716;6.444;2022-11-06T03:23:41;9.50;99.90
60473;DHT22;46318;52.716;6.444;2022-11-06T03:26:25;9.50;99.90
60473;DHT22;46318;52.716;6.444;2022-11-06T03:29:01;9.60;99.90
60473;DHT22;46318;52.716;6.444;2022-11-06T03:31:36;9.50;99.90
60473;DHT22;46318;52.716;6.444;2022-11-06T03:34:08;9.50;99.90
60473;DHT22;46318;52.716;6.444;2022-11-06T03:36:40;9.50;99.90
60473;DHT22;46318;52.716;6.444;2022-11-06T03:39:18;9.50;99.90
60473;DHT22;46318;52.716;6.444;2022-11-06T03:41:55;9.50;99.90
60473;DHT22;46318;52.716;6.444;2022-11-06T03:44:27;9.50;99.90
60473;DHT22;46318;52.716;6.444;2022-11-06T03:47:01;9.50;99.90
60473;DHT22;46318;52.716;6.444;2022-11-06T03:49:46;9.50;99.90
60473;DHT22;46318;52.716;6.444;2022-11-06T03:52:21;9.50;99.90
60473;DHT22;46318;52.716;6.444;2022-11-06T03:55:00;9.50;99.90
60473;DHT22;46318;52.716;6.444;2022-11-06T03:57:56;9.50;99.90
60473;DHT22;46318;52.716;6.444;2022-11-06T04:00:31;9.50;99.90
60473;DHT22;46318;52.716;6.444;2022-11-06T04:03:01;9.50;99.90
60473;DHT22;46318;52.716;6.444;2022-11-06T04:05:36;9.50;99.90
60473;DHT22;46318;52.716;6.444;2022-11-06T04:08:06;9.50;99.90
60473;DHT22;46318;52.716;6.444;2022-11-06T04:10:56;9.50;99.90
60473;DHT22;46318;52.716;6.444;2022-11-06T04:13:42;9.50;99.90
60473;DHT22;46318;52.716;6.444;2022-11-06T04:16:40;9.50;99.90
60473;DHT22;46318;52.716;6.444;2022-11-06T04:19:19;9.40;99.90
60473;DHT22;46318;52.716;6.444;2022-11-06T04:21:56;9.40;99.90
60473;DHT22;46318;52.716;6.444;2022-11-06T04:24:55;9.40;99.90
60473;DHT22;46318;52.716;6.444;2022-11-06T04:39:05;9.40;99.90
60473;DHT22;46318;52.716;6.444;2022-11-06T04:41:55;9.40;99.90
60473;DHT22;46318;52.716;6.444;2022-11-06T04:44:38;9.40;99.90
60473;DHT22;46318;52.716;6.444;2022-11-06T04:47:08;9.30;99.90
60473;DHT22;46318;52.716;6.444;2022-11-06T04:49:39;9.40;99.90
60473;DHT22;46318;52.716;6.444;2022-11-06T04:52:08;9.30;99.90
60473;DHT22;46318;52.716;6.444;2022-11-06T04:54:40;9.30;99.90
60473;DHT22;46318;52.716;6.444;2022-11-06T04:57:05;9.30;99.90
60473;DHT22;46318;52.716;6.444;2022-11-06T04:59:34;9.30;99.90
60473;DHT22;46318;52.716;6.444;2022-11-06T05:02:01;9.30;99.90
60473;DHT22;46318;52.716;6.444;2022-11-06T05:04:27;9.40;99.90
60473;DHT22;46318;52.716;6.444;2022-11-06T05:06:53;9.30;99.90
60473;DHT22;46318;52.716;6.444;2022-11-06T05:09:19;9.30;99.90
60473;DHT22;46318;52.716;6.444;2022-11-06T05:11:44;9.40;99.90
60473;DHT22;46318;52.716;6.444;2022-11-06T05:14:10;9.30;99.90
60473;DHT22;46318;52.716;6.444;2022-11-06T05:16:36;9.40;99.90
60473;DHT22;46318;52.716;6.444;2022-11-06T05:19:02;9.40;99.90
60473;DHT22;46318;52.716;6.444;2022-11-06T05:21:28;9.40;99.90
60473;DHT22;46318;52.716;6.444;2022-11-06T05:24:12;9.30;99.90
60473;DHT22;46318;52.716;6.444;2022-11-06T05:26:38;9.40;99.90
60473;DHT22;46318;52.716;6.444;2022-11-06T05:29:06;9.40;99.90
60473;DHT22;46318;52.716;6.444;2022-11-06T05:31:32;9.40;99.90
60473;DHT22;46318;52.716;6.444;2022-11-06T05:33:58;9.40;99.90
60473;DHT22;46318;52.716;6.444;2022-11-06T05:36:24;9.40;99.90
60473;DHT22;46318;52.716;6.444;2022-11-06T05:38:49;9.40;99.90
60473;DHT22;46318;52.716;6.444;2022-11-06T05:41:15;9.40;99.90
60473;DHT22;46318;52.716;6.444;2022-11-06T05:43:41;9.40;99.90
60473;DHT22;46318;52.716;6.444;2022-11-06T05:46:07;9.40;99.90
60473;DHT22;46318;52.716;6.444;2022-11-06T05:48:33;9.40;99.90
60473;DHT22;46318;52.716;6.444;2022-11-06T05:51:03;9.40;99.90
60473;DHT22;46318;52.716;6.444;2022-11-06T05:53:33;9.40;99.90
60473;DHT22;46318;52.716;6.444;2022-11-06T05:56:00;9.40;99.90
60473;DHT22;46318;52.716;6.444;2022-11-06T05:58:27;9.50;99.90
60473;DHT22;46318;52.716;6.444;2022-11-06T06:00:54;9.40;99.90
60473;DHT22;46318;52.716;6.444;2022-11-06T06:03:20;9.50;99.90
60473;DHT22;46318;52.716;6.444;2022-11-06T06:05:47;9.50;99.90
60473;DHT22;46318;52.716;6.444;2022-11-06T06:08:13;9.50;99.90
60473;DHT22;46318;52.716;6.444;2022-11-06T06:10:40;9.50;99.90
60473;DHT22;46318;52.716;6.444;2022-11-06T06:13:06;9.50;99.90
60473;DHT22;46318;52.716;6.444;2022-11-06T06:15:32;9.50;99.90
60473;DHT22;46318;52.716;6.444;2022-11-06T06:17:58;9.50;99.90
60473;DHT22;46318;52.716;6.444;2022-11-06T06:20:24;9.50;99.90
60473;DHT22;46318;52.716;6.444;2022-11-06T06:22:57;9.60;99.90
60473;DHT22;46318;52.716;6.444;2022-11-06T06:25:24;9.60;99.90
60473;DHT22;46318;52.716;6.444;2022-11-06T06:27:51;9.60;99.90
60473;DHT22;46318;52.716;6.444;2022-11-06T06:30:17;9.60;99.90
60473;DHT22;46318;52.716;6.444;2022-11-06T06:32:43;9.60;99.90
60473;DHT22;46318;52.716;6.444;2022-11-06T06:35:09;9.60;99.90
60473;DHT22;46318;52.716;6.444;2022-11-06T06:37:36;9.60;99.90
60473;DHT22;46318;52.716;6.444;2022-11-06T06:40:03;9.60;99.90
60473;DHT22;46318;52.716;6.444;2022-11-06T06:42:29;9.60;99.90
60473;DHT22;46318;52.716;6.444;2022-11-06T06:44:56;9.60;99.90
60473;DHT22;46318;52.716;6.444;2022-11-06T06:47:22;9.60;99.90
60473;DHT22;46318;52.716;6.444;2022-11-06T06:49:47;9.60;99.90
60473;DHT22;46318;52.716;6.444;2022-11-06T06:52:13;9.60;99.90
60473;DHT22;46318;52.716;6.444;2022-11-06T06:54:39;9.60;99.90
60473;DHT22;46318;52.716;6.444;2022-11-06T06:57:08;9.60;99.90
60473;DHT22;46318;52.716;6.444;2022-11-06T06:59:34;9.60;99.90
60473;DHT22;46318;52.716;6.444;2022-11-06T07:02:00;9.60;99.90
60473;DHT22;46318;52.716;6.444;2022-11-06T07:04:26;9.60;99.90
60473;DHT22;46318;52.716;6.444;2022-11-06T07:06:54;9.70;99.90
60473;DHT22;46318;52.716;6.444;2022-11-06T07:09:21;9.70;99.90
60473;DHT22;46318;52.716;6.444;2022-11-06T07:11:48;9.70;99.90
60473;DHT22;46318;52.716;6.444;2022-11-06T07:14:14;9.70;99.90
60473;DHT22;46318;52.716;6.444;2022-11-06T07:16:40;9.70;99.90
60473;DHT22;46318;52.716;6.444;2022-11-06T07:19:06;9.70;99.90
60473;DHT22;46318;52.716;6.444;2022-11-06T07:21:31;9.70;99.90
60473;DHT22;46318;52.716;6.444;2022-11-06T07:23:57;9.70;99.90
60473;DHT22;46318;52.716;6.444;2022-11-06T07:26:23;9.80;99.90
60473;DHT22;46318;52.716;6.444;2022-11-06T07:28:48;9.70;99.90
60473;DHT22;46318;52.716;6.444;2022-11-06T07:31:14;9.70;99.90
60473;DHT22;46318;52.716;6.444;2022-11-06T07:33:40;9.80;99.90
60473;DHT22;46318;52.716;6.444;2022-11-06T07:36:11;9.80;99.90
60473;DHT22;46318;52.716;6.444;2022-11-06T07:38:38;9.80;99.90
60473;DHT22;46318;52.716;6.444;2022-11-06T07:41:07;9.80;99.90
60473;DHT22;46318;52.716;6.444;2022-11-06T07:43:39;9.80;99.90
60473;DHT22;46318;52.716;6.444;2022-11-06T07:46:07;9.80;99.90
60473;DHT22;46318;52.716;6.444;2022-11-06T07:48:34;9.80;99.90
60473;DHT22;46318;52.716;6.444;2022-11-06T07:51:06;9.90;99.90
60473;DHT22;46318;52.716;6.444;2022-11-06T07:53:33;9.90;99.90
60473;DHT22;46318;52.716;6.444;2022-11-06T07:55:59;9.90;99.90
60473;DHT22;46318;52.716;6.444;2022-11-06T07:58:25;9.90;99.90
60473;DHT22;46318;52.716;6.444;2022-11-06T08:00:54;9.90;99.90
60473;DHT22;46318;52.716;6.444;2022-11-06T08:03:22;9.90;99.90
60473;DHT22;46318;52.716;6.444;2022-11-06T08:05:49;9.90;99.90
60473;DHT22;46318;52.716;6.444;2022-11-06T08:08:15;9.90;99.90
60473;DHT22;46318;52.716;6.444;2022-11-06T08:10:41;9.90;99.90
60473;DHT22;46318;52.716;6.444;2022-11-06T08:13:14;9.90;99.90
60473;DHT22;46318;52.716;6.444;2022-11-06T08:15:41;10.00;99.90
60473;DHT22;46318;52.716;6.444;2022-11-06T08:18:07;10.00;99.90
60473;DHT22;46318;52.716;6.444;2022-11-06T08:20:35;10.00;99.90
60473;DHT22;46318;52.716;6.444;2022-11-06T08:23:03;10.00;99.90
60473;DHT22;46318;52.716;6.444;2022-11-06T08:25:30;10.00;99.90
60473;DHT22;46318;52.716;6.444;2022-11-06T08:27:57;10.00;99.90
60473;DHT22;46318;52.716;6.444;2022-11-06T08:30:25;10.00;99.90
60473;DHT22;46318;52.716;6.444;2022-11-06T08:32:51;10.00;99.90
60473;DHT22;46318;52.716;6.444;2022-11-06T08:35:17;10.00;99.90
60473;DHT22;46318;52.716;6.444;2022-11-06T08:37:43;10.00;99.90
60473;DHT22;46318;52.716;6.444;2022-11-06T08:40:09;10.10;99.90
60473;DHT22;46318;52.716;6.444;2022-11-06T08:42:36;10.10;99.90
60473;DHT22;46318;52.716;6.444;2022-11-06T08:45:01;10.10;99.90
60473;DHT22;46318;52.716;6.444;2022-11-06T08:47:28;10.10;99.90
60473;DHT22;46318;52.716;6.444;2022-11-06T08:49:56;10.10;99.90
60473;DHT22;46318;52.716;6.444;2022-11-06T08:52:22;10.10;99.90
60473;DHT22;46318;52.716;6.444;2022-11-06T08:54:48;10.20;99.90
60473;DHT22;46318;52.716;6.444;2022-11-06T08:57:14;10.20;99.90
60473;DHT22;46318;52.716;6.444;2022-11-06T08:59:39;10.30;99.90
60473;DHT22;46318;52.716;6.444;2022-11-06T09:02:05;10.30;99.90
60473;DHT22;46318;52.716;6.444;2022-11-06T09:04:31;10.30;99.90
60473;DHT22;46318;52.716;6.444;2022-11-06T09:06:57;10.30;99.90
60473;DHT22;46318;52.716;6.444;2022-11-06T09:09:23;10.40;99.90
60473;DHT22;46318;52.716;6.444;2022-11-06T09:11:56;10.40;99.90
60473;DHT22;46318;52.716;6.444;2022-11-06T09:14:23;10.40;99.90
60473;DHT22;46318;52.716;6.444;2022-11-06T09:16:49;10.40;99.90
60473;DHT22;46318;52.716;6.444;2022-11-06T09:19:15;10.40;99.90
60473;DHT22;46318;52.716;6.444;2022-11-06T09:21:41;10.50;99.90
60473;DHT22;46318;52.716;6.444;2022-11-06T09:24:06;10.50;99.90
60473;DHT22;46318;52.716;6.444;2022-11-06T09:26:32;10.50;99.90
60473;DHT22;46318;52.716;6.444;2022-11-06T09:28:58;10.50;99.90
60473;DHT22;46318;52.716;6.444;2022-11-06T09:31:24;10.60;99.90
60473;DHT22;46318;52.716;6.444;2022-11-06T09:33:50;10.60;99.90
60473;DHT22;46318;52.716;6.444;2022-11-06T09:36:16;10.70;99.90
60473;DHT22;46318;52.716;6.444;2022-11-06T09:38:42;10.70;99.90
60473;DHT22;46318;52.716;6.444;2022-11-06T09:41:18;10.70;99.90
60473;DHT22;46318;52.716;6.444;2022-11-06T09:44:28;10.80;99.90
60473;DHT22;46318;52.716;6.444;2022-11-06T09:47:06;10.80;99.90
60473;DHT22;46318;52.716;6.444;2022-11-06T09:49:50;10.80;99.90
60473;DHT22;46318;52.716;6.444;2022-11-06T09:54:56;10.90;99.90
60473;DHT22;46318;52.716;6.444;2022-11-06T09:57:41;10.90;99.90
60473;DHT22;46318;52.716;6.444;2022-11-06T10:00:13;10.90;99.90
60473;DHT22;46318;52.716;6.444;2022-11-06T10:02:51;11.00;99.90
60473;DHT22;46318;52.716;6.444;2022-11-06T10:05:29;11.00;99.90
60473;DHT22;46318;52.716;6.444;2022-11-06T10:08:02;11.00;99.90
60473;DHT22;46318;52.716;6.444;2022-11-06T10:16:38;11.10;99.90
60473;DHT22;46318;52.716;6.444;2022-11-06T10:19:40;11.10;99.90
60473;DHT22;46318;52.716;6.444;2022-11-06T10:22:16;11.10;99.90
60473;DHT22;46318;52.716;6.444;2022-11-06T10:28:13;11.10;99.90
60473;DHT22;46318;52.716;6.444;2022-11-06T10:31:10;11.20;99.90
60473;DHT22;46318;52.716;6.444;2022-11-06T10:34:01;11.10;99.90
60473;DHT22;46318;52.716;6.444;2022-11-06T10:36:48;11.10;99.90
60473;DHT22;46318;52.716;6.444;2022-11-06T10:39:21;11.10;99.90
60473;DHT22;46318;52.716;6.444;2022-11-06T10:41:51;11.10;99.90
60473;DHT22;46318;52.716;6.444;2022-11-06T10:44:32;11.10;99.90
60473;DHT22;46318;52.716;6.444;2022-11-06T10:47:04;11.10;99.90
60473;DHT22;46318;52.716;6.444;2022-11-06T10:49:58;11.20;99.90
60473;DHT22;46318;52.716;6.444;2022-11-06T10:55:54;11.20;99.90
60473;DHT22;46318;52.716;6.444;2022-11-06T10:58:29;11.20;99.90
60473;DHT22;46318;52.716;6.444;2022-11-06T11:01:00;11.30;99.90
60473;DHT22;46318;52.716;6.444;2022-11-06T11:03:32;11.40;99.90
60473;DHT22;46318;52.716;6.444;2022-11-06T11:06:00;11.40;99.90
60473;DHT22;46318;52.716;6.444;2022-11-06T11:08:43;11.40;99.90
60473;DHT22;46318;52.716;6.444;2022-11-06T11:13:39;11.50;99.90
60473;DHT22;46318;52.716;6.444;2022-11-06T11:18:46;11.60;99.90
60473;DHT22;46318;52.716;6.444;2022-11-06T11:23:45;11.60;99.90
60473;DHT22;46318;52.716;6.444;2022-11-06T11:26:23;11.70;99.90
60473;DHT22;46318;52.716;6.444;2022-11-06T11:28:58;11.70;99.90
60473;DHT22;46318;52.716;6.444;2022-11-06T11:31:33;11.80;99.90
60473;DHT22;46318;52.716;6.444;2022-11-06T11:34:02;11.80;99.90
60473;DHT22;46318;52.716;6.444;2022-11-06T11:39:28;11.80;99.90
60473;DHT22;46318;52.716;6.444;2022-11-06T11:42:30;11.80;99.90
60473;DHT22;46318;52.716;6.444;2022-11-06T11:47:48;11.90;99.90
60473;DHT22;46318;52.716;6.444;2022-11-06T11:50:24;11.90;99.90
60473;DHT22;46318;52.716;6.444;2022-11-06T11:53:13;11.90;99.90
60473;DHT22;46318;52.716;6.444;2022-11-06T11:55:46;11.90;99.90
60473;DHT22;46318;52.716;6.444;2022-11-06T11:58:25;12.00;99.90
60473;DHT22;46318;52.716;6.444;2022-11-06T12:01:03;12.00;99.90
60473;DHT22;46318;52.716;6.444;2022-11-06T12:03:39;12.00;99.90
60473;DHT22;46318;52.716;6.444;2022-11-06T12:06:12;12.00;99.90
60473;DHT22;46318;52.716;6.444;2022-11-06T12:08:44;12.00;99.90
60473;DHT22;46318;52.716;6.444;2022-11-06T12:11:17;12.10;99.90
60473;DHT22;46318;52.716;6.444;2022-11-06T12:16:50;12.10;99.90
60473;DHT22;46318;52.716;6.444;2022-11-06T12:19:19;12.10;99.90
60473;DHT22;46318;52.716;6.444;2022-11-06T12:21:51;12.10;99.90
60473;DHT22;46318;52.716;6.444;2022-11-06T12:24:23;12.20;99.90
60473;DHT22;46318;52.716;6.444;2022-11-06T12:27:10;12.20;99.90
60473;DHT22;46318;52.716;6.444;2022-11-06T12:29:46;12.20;99.90
60473;DHT22;46318;52.716;6.444;2022-11-06T12:35:28;12.30;99.90
60473;DHT22;46318;52.716;6.444;2022-11-06T12:38:48;12.30;99.90
60473;DHT22;46318;52.716;6.444;2022-11-06T12:41:33;12.30;99.90
60473;DHT22;46318;52.716;6.444;2022-11-06T12:44:00;12.30;99.90
60473;DHT22;46318;52.716;6.444;2022-11-06T12:46:42;12.30;99.90
60473;DHT22;46318;52.716;6.444;2022-11-06T12:52:37;12.30;99.90
60473;DHT22;46318;52.716;6.444;2022-11-06T12:55:34;12.30;99.90
60473;DHT22;46318;52.716;6.444;2022-11-06T13:10:41;12.30;99.90
60473;DHT22;46318;52.716;6.444;2022-11-06T13:17:03;12.30;99.90
60473;DHT22;46318;52.716;6.444;2022-11-06T13:22:41;12.30;99.90
60473;DHT22;46318;52.716;6.444;2022-11-06T13:25:54;12.30;99.90
60473;DHT22;46318;52.716;6.444;2022-11-06T13:28:33;12.30;99.90
60473;DHT22;46318;52.716;6.444;2022-11-06T13:31:05;12.30;99.90
60473;DHT22;46318;52.716;6.444;2022-11-06T13:36:16;12.30;99.90
60473;DHT22;46318;52.716;6.444;2022-11-06T13:38:47;12.30;99.90
60473;DHT22;46318;52.716;6.444;2022-11-06T13:41:21;12.30;99.90
60473;DHT22;46318;52.716;6.444;2022-11-06T13:44:01;12.30;99.90
60473;DHT22;46318;52.716;6.444;2022-11-06T13:47:11;12.30;99.90
60473;DHT22;46318;52.716;6.444;2022-11-06T13:52:48;12.30;99.90
60473;DHT22;46318;52.716;6.444;2022-11-06T13:55:42;12.30;99.90
60473;DHT22;46318;52.716;6.444;2022-11-06T14:01:40;12.20;99.90
60473;DHT22;46318;52.716;6.444;2022-11-06T14:07:48;12.20;99.90
60473;DHT22;46318;52.716;6.444;2022-11-06T14:10:21;12.20;99.90
60473;DHT22;46318;52.716;6.444;2022-11-06T14:12:49;12.20;99.90
60473;DHT22;46318;52.716;6.444;2022-11-06T14:18:00;12.10;99.90
60473;DHT22;46318;52.716;6.444;2022-11-06T14:20:35;12.10;99.90
60473;DHT22;46318;52.716;6.444;2022-11-06T14:26:01;12.10;99.90
60473;DHT22;46318;52.716;6.444;2022-11-06T14:28:37;12.10;99.90
60473;DHT22;46318;52.716;6.444;2022-11-06T14:31:06;12.10;99.90
60473;DHT22;46318;52.716;6.444;2022-11-06T14:38:48;12.10;99.90
60473;DHT22;46318;52.716;6.444;2022-11-06T14:44:03;12.10;99.90
60473;DHT22;46318;52.716;6.444;2022-11-06T14:46:31;12.10;99.90
60473;DHT22;46318;52.716;6.444;2022-11-06T14:49:24;12.10;99.90
60473;DHT22;46318;52.716;6.444;2022-11-06T14:52:06;12.10;99.90
60473;DHT22;46318;52.716;6.444;2022-11-06T14:54:36;12.10;99.90
60473;DHT22;46318;52.716;6.444;2022-11-06T14:57:06;12.10;99.90
60473;DHT22;46318;52.716;6.444;2022-11-06T14:59:34;12.10;99.90
60473;DHT22;46318;52.716;6.444;2022-11-06T15:02:15;12.10;99.90
60473;DHT22;46318;52.716;6.444;2022-11-06T15:04:55;12.00;99.90
60473;DHT22;46318;52.716;6.444;2022-11-06T15:13:22;12.00;99.90
60473;DHT22;46318;52.716;6.444;2022-11-06T15:15:57;12.00;99.90
60473;DHT22;46318;52.716;6.444;2022-11-06T15:18:28;11.90;99.90
60473;DHT22;46318;52.716;6.444;2022-11-06T15:21:01;11.90;99.90
60473;DHT22;46318;52.716;6.444;2022-11-06T15:23:36;11.90;99.90
60473;DHT22;46318;52.716;6.444;2022-11-06T15:26:24;11.90;99.90
60473;DHT22;46318;52.716;6.444;2022-11-06T15:31:46;11.80;99.90
60473;DHT22;46318;52.716;6.444;2022-11-06T15:34:39;11.70;99.90
60473;DHT22;46318;52.716;6.444;2022-11-06T15:37:18;11.70;99.90
60473;DHT22;46318;52.716;6.444;2022-11-06T15:42:17;11.70;99.90
60473;DHT22;46318;52.716;6.444;2022-11-06T15:44:46;11.70;99.90
60473;DHT22;46318;52.716;6.444;2022-11-06T15:47:23;11.60;99.90
60473;DHT22;46318;52.716;6.444;2022-11-06T15:50:14;11.60;99.90
60473;DHT22;46318;52.716;6.444;2022-11-06T15:52:41;11.60;99.90
60473;DHT22;46318;52.716;6.444;2022-11-06T15:55:12;11.50;99.90
60473;DHT22;46318;52.716;6.444;2022-11-06T15:57:39;11.50;99.90
60473;DHT22;46318;52.716;6.444;2022-11-06T16:00:09;11.50;99.90
60473;DHT22;46318;52.716;6.444;2022-11-06T16:02:50;11.50;99.90
60473;DHT22;46318;52.716;6.444;2022-11-06T16:05:19;11.40;99.90
60473;DHT22;46318;52.716;6.444;2022-11-06T16:07:46;11.40;99.90
60473;DHT22;46318;52.716;6.444;2022-11-06T16:10:15;11.40;99.90
60473;DHT22;46318;52.716;6.444;2022-11-06T16:12:42;11.30;99.90
60473;DHT22;46318;52.716;6.444;2022-11-06T16:18:31;11.20;99.90
60473;DHT22;46318;52.716;6.444;2022-11-06T16:21:18;11.10;99.90
60473;DHT22;46318;52.716;6.444;2022-11-06T16:23:46;11.00;99.90
60473;DHT22;46318;52.716;6.444;2022-11-06T16:28:50;10.90;99.90
60473;DHT22;46318;52.716;6.444;2022-11-06T16:31:19;10.80;99.90
60473;DHT22;46318;52.716;6.444;2022-11-06T16:34:03;10.70;99.90
60473;DHT22;46318;52.716;6.444;2022-11-06T16:36:49;10.70;99.90
60473;DHT22;46318;52.716;6.444;2022-11-06T16:39:42;10.60;99.90
60473;DHT22;46318;52.716;6.444;2022-11-06T16:45:21;10.40;99.90
60473;DHT22;46318;52.716;6.444;2022-11-06T16:50:52;10.30;99.90
60473;DHT22;46318;52.716;6.444;2022-11-06T16:53:26;10.20;99.90
60473;DHT22;46318;52.716;6.444;2022-11-06T16:56:04;10.20;99.90
60473;DHT22;46318;52.716;6.444;2022-11-06T16:58:34;10.10;99.90
60473;DHT22;46318;52.716;6.444;2022-11-06T17:01:14;10.10;99.90
60473;DHT22;46318;52.716;6.444;2022-11-06T17:03:56;10.00;99.90
60473;DHT22;46318;52.716;6.444;2022-11-06T17:06:27;9.90;99.90
60473;DHT22;46318;52.716;6.444;2022-11-06T17:11:53;9.90;99.90
60473;DHT22;46318;52.716;6.444;2022-11-06T17:14:21;9.80;99.90
60473;DHT22;46318;52.716;6.444;2022-11-06T17:17:08;9.80;99.90
60473;DHT22;46318;52.716;6.444;2022-11-06T17:19:49;9.80;99.90
60473;DHT22;46318;52.716;6.444;2022-11-06T17:22:15;9.70;99.90
60473;DHT22;46318;52.716;6.444;2022-11-06T17:24:40;9.70;99.90
60473;DHT22;46318;52.716;6.444;2022-11-06T17:27:06;9.70;99.90
60473;DHT22;46318;52.716;6.444;2022-11-06T17:29:32;9.70;99.90
60473;DHT22;46318;52.716;6.444;2022-11-06T17:32:00;9.70;99.90
60473;DHT22;46318;52.716;6.444;2022-11-06T17:34:26;9.70;99.90
60473;DHT22;46318;52.716;6.444;2022-11-06T17:36:52;9.60;99.90
60473;DHT22;46318;52.716;6.444;2022-11-06T17:39:18;9.60;99.90
60473;DHT22;46318;52.716;6.444;2022-11-06T17:41:43;9.60;99.90
60473;DHT22;46318;52.716;6.444;2022-11-06T17:44:10;9.60;99.90
60473;DHT22;46318;52.716;6.444;2022-11-06T17:46:39;9.60;99.90
60473;DHT22;46318;52.716;6.444;2022-11-06T17:49:07;9.60;99.90
60473;DHT22;46318;52.716;6.444;2022-11-06T17:51:34;9.50;99.90
60473;DHT22;46318;52.716;6.444;2022-11-06T17:54:25;9.50;99.90
60473;DHT22;46318;52.716;6.444;2022-11-06T17:56:53;9.50;99.90
60473;DHT22;46318;52.716;6.444;2022-11-06T17:59:19;9.50;99.90
60473;DHT22;46318;52.716;6.444;2022-11-06T18:01:46;9.40;99.90
60473;DHT22;46318;52.716;6.444;2022-11-06T18:04:14;9.40;99.90
60473;DHT22;46318;52.716;6.444;2022-11-06T18:06:44;9.40;99.90
60473;DHT22;46318;52.716;6.444;2022-11-06T18:09:10;9.40;99.90
60473;DHT22;46318;52.716;6.444;2022-11-06T18:11:38;9.30;99.90
60473;DHT22;46318;52.716;6.444;2022-11-06T18:14:03;9.30;99.90
60473;DHT22;46318;52.716;6.444;2022-11-06T18:16:31;9.30;99.90
60473;DHT22;46318;52.716;6.444;2022-11-06T18:18:59;9.30;99.90
60473;DHT22;46318;52.716;6.444;2022-11-06T18:21:24;9.30;99.90
60473;DHT22;46318;52.716;6.444;2022-11-06T18:23:50;9.20;99.90
60473;DHT22;46318;52.716;6.444;2022-11-06T18:26:17;9.20;99.90
60473;DHT22;46318;52.716;6.444;2022-11-06T18:28:46;9.20;99.90
60473;DHT22;46318;52.716;6.444;2022-11-06T18:31:12;9.20;99.90
60473;DHT22;46318;52.716;6.444;2022-11-06T18:33:38;9.30;99.90